THY1574 LTCG-LTAU
Flight info
| Callsign | THY1574 |
|---|---|
| Flight time | N/A |
| Altitude | 32000 |
| Route | TEMEL DCT ATRIV UT284 SIV UA285 TIRMA |
| Aircraft | B739/M-SDE2E3FGHIRWXY/LB1 |
Departure
| Time | N/A |
|---|---|
| Airport | Trabzon International Airport (LTCG) |
Arrival
| Time | 2026-04-27 16:58 |
|---|---|
| Airport | Kayseri Erkilet International Airport (LTAU) |
| Time | Latitude | Longitude | Altitude | Speed | Heading |
|---|---|---|---|---|---|
| 2026-04-27 16:20 | 40.79165 | 38.55396 | 30271 ft | 400 kts | 239° |
| 2026-04-27 16:20 | 40.78250 | 38.53406 | 30272 ft | 400 kts | 239° |
| 2026-04-27 16:21 | 40.73915 | 38.43987 | 30564 ft | 394 kts | 239° |
| 2026-04-27 16:21 | 40.69775 | 38.35022 | 32206 ft | 371 kts | 239° |
| 2026-04-27 16:22 | 40.68425 | 38.32103 | 32237 ft | 378 kts | 239° |
| 2026-04-27 16:22 | 40.65642 | 38.26091 | 32269 ft | 390 kts | 239° |
| 2026-04-27 16:22 | 40.64217 | 38.23019 | 32277 ft | 396 kts | 239° |
| 2026-04-27 16:23 | 40.59868 | 38.13663 | 32247 ft | 403 kts | 239° |
| 2026-04-27 16:24 | 40.56934 | 38.07368 | 32223 ft | 404 kts | 239° |
| 2026-04-27 16:25 | 40.51067 | 37.94818 | 32200 ft | 401 kts | 239° |
| 2026-04-27 16:26 | 40.45808 | 37.83613 | 32194 ft | 397 kts | 239° |
| 2026-04-27 16:27 | 40.40025 | 37.71333 | 32194 ft | 394 kts | 239° |
| 2026-04-27 16:28 | 40.32809 | 37.56080 | 32190 ft | 394 kts | 238° |
| 2026-04-27 16:29 | 40.25557 | 37.40822 | 32181 ft | 397 kts | 238° |
| 2026-04-27 16:30 | 40.20341 | 37.30996 | 32164 ft | 399 kts | 225° |
| 2026-04-27 16:31 | 40.09363 | 37.19822 | 32155 ft | 400 kts | 218° |
| 2026-04-27 16:32 | 40.02773 | 37.13214 | 32143 ft | 399 kts | 219° |
| 2026-04-27 16:33 | 39.96176 | 37.06584 | 32143 ft | 398 kts | 218° |
| 2026-04-27 16:33 | 39.91800 | 37.02196 | 32139 ft | 393 kts | 218° |
| 2026-04-27 16:34 | 39.87481 | 36.97873 | 32148 ft | 388 kts | 218° |
| 2026-04-27 16:34 | 39.83226 | 36.93619 | 32139 ft | 379 kts | 218° |
| 2026-04-27 16:35 | 39.81168 | 36.91565 | 31790 ft | 372 kts | 218° |
| 2026-04-27 16:35 | 39.79919 | 36.90319 | 30933 ft | 388 kts | 218° |
| 2026-04-27 16:35 | 39.75913 | 36.85343 | 28534 ft | 414 kts | 227° |
| 2026-04-27 16:36 | 39.73931 | 36.82565 | 27303 ft | 425 kts | 228° |
| 2026-04-27 16:36 | 39.71903 | 36.79711 | 26117 ft | 434 kts | 228° |
| 2026-04-27 16:36 | 39.69852 | 36.76842 | 25508 ft | 424 kts | 227° |
| 2026-04-27 16:36 | 39.67886 | 36.74113 | 25240 ft | 403 kts | 227° |
| 2026-04-27 16:37 | 39.66008 | 36.71519 | 24971 ft | 384 kts | 227° |
| 2026-04-27 16:37 | 39.64216 | 36.69052 | 24704 ft | 368 kts | 227° |
| 2026-04-27 16:37 | 39.62495 | 36.66687 | 24441 ft | 353 kts | 227° |
| 2026-04-27 16:37 | 39.60841 | 36.64416 | 24190 ft | 339 kts | 227° |
| 2026-04-27 16:38 | 39.59247 | 36.62226 | 23943 ft | 330 kts | 228° |
| 2026-04-27 16:38 | 39.57685 | 36.60083 | 23657 ft | 323 kts | 228° |
| 2026-04-27 16:38 | 39.56149 | 36.57974 | 23271 ft | 321 kts | 228° |
| 2026-04-27 16:38 | 39.54617 | 36.55874 | 22845 ft | 320 kts | 228° |
| 2026-04-27 16:39 | 39.53097 | 36.53792 | 22513 ft | 316 kts | 228° |
| 2026-04-27 16:39 | 39.51580 | 36.51717 | 22147 ft | 316 kts | 228° |
| 2026-04-27 16:39 | 39.50059 | 36.49639 | 21769 ft | 320 kts | 228° |
| 2026-04-27 16:39 | 39.48506 | 36.47526 | 21301 ft | 328 kts | 228° |
| 2026-04-27 16:40 | 39.46923 | 36.45380 | 20910 ft | 331 kts | 228° |
| 2026-04-27 16:40 | 39.45947 | 36.44057 | 20659 ft | 330 kts | 228° |
| 2026-04-27 16:40 | 39.44366 | 36.41916 | 20281 ft | 328 kts | 228° |
| 2026-04-27 16:40 | 39.42794 | 36.39789 | 19894 ft | 326 kts | 228° |
| 2026-04-27 16:41 | 39.41226 | 36.37667 | 19513 ft | 324 kts | 228° |
| 2026-04-27 16:41 | 39.39669 | 36.35562 | 19131 ft | 323 kts | 228° |
| 2026-04-27 16:41 | 39.38121 | 36.33469 | 18770 ft | 321 kts | 228° |
| 2026-04-27 16:41 | 39.36581 | 36.31388 | 18388 ft | 319 kts | 228° |
| 2026-04-27 16:42 | 39.35048 | 36.29318 | 17982 ft | 318 kts | 228° |
| 2026-04-27 16:42 | 39.33525 | 36.27262 | 17589 ft | 315 kts | 228° |
| 2026-04-27 16:42 | 39.32029 | 36.25246 | 17210 ft | 313 kts | 228° |
| 2026-04-27 16:42 | 39.30529 | 36.23223 | 16845 ft | 310 kts | 228° |
| 2026-04-27 16:43 | 39.29040 | 36.21218 | 16482 ft | 308 kts | 228° |
| 2026-04-27 16:43 | 39.27566 | 36.19234 | 16127 ft | 305 kts | 227° |
| 2026-04-27 16:43 | 39.26101 | 36.17263 | 15773 ft | 303 kts | 227° |
| 2026-04-27 16:43 | 39.24668 | 36.15337 | 15668 ft | 289 kts | 227° |
| 2026-04-27 16:44 | 39.23305 | 36.13506 | 15252 ft | 285 kts | 227° |
| 2026-04-27 16:44 | 39.21911 | 36.11632 | 14831 ft | 291 kts | 227° |
| 2026-04-27 16:44 | 39.20492 | 36.09725 | 14450 ft | 296 kts | 227° |
| 2026-04-27 16:44 | 39.19061 | 36.07806 | 14096 ft | 297 kts | 227° |
| 2026-04-27 16:45 | 39.17634 | 36.05894 | 13726 ft | 295 kts | 227° |
| 2026-04-27 16:45 | 39.16757 | 36.04720 | 13474 ft | 294 kts | 227° |
| 2026-04-27 16:45 | 39.15313 | 36.02861 | 13109 ft | 293 kts | 220° |
| 2026-04-27 16:45 | 39.13628 | 36.01404 | 12771 ft | 291 kts | 212° |
| 2026-04-27 16:46 | 39.11900 | 36.00119 | 12416 ft | 290 kts | 211° |
| 2026-04-27 16:46 | 39.10152 | 35.98840 | 12084 ft | 288 kts | 211° |
| 2026-04-27 16:46 | 39.08416 | 35.97565 | 11726 ft | 287 kts | 211° |
| 2026-04-27 16:46 | 39.06686 | 35.96284 | 11376 ft | 286 kts | 211° |
| 2026-04-27 16:47 | 39.04967 | 35.95004 | 11029 ft | 285 kts | 211° |
| 2026-04-27 16:47 | 39.03258 | 35.93725 | 10680 ft | 283 kts | 212° |
| 2026-04-27 16:47 | 39.01558 | 35.92451 | 10353 ft | 282 kts | 211° |
| 2026-04-27 16:47 | 38.99870 | 35.91184 | 10137 ft | 277 kts | 212° |
| 2026-04-27 16:48 | 38.98233 | 35.89954 | 9927 ft | 271 kts | 212° |
| 2026-04-27 16:48 | 38.96599 | 35.88726 | 9576 ft | 271 kts | 212° |
| 2026-04-27 16:48 | 38.94995 | 35.87521 | 9245 ft | 270 kts | 212° |
| 2026-04-27 16:49 | 38.91917 | 35.85210 | 8995 ft | 239 kts | 212° |
| 2026-04-27 16:49 | 38.90525 | 35.84165 | 8708 ft | 229 kts | 212° |
| 2026-04-27 16:49 | 38.89151 | 35.83133 | 8376 ft | 222 kts | 212° |
| 2026-04-27 16:49 | 38.87845 | 35.82154 | 8186 ft | 211 kts | 212° |
| 2026-04-27 16:50 | 38.86588 | 35.81212 | 8131 ft | 209 kts | 212° |
| 2026-04-27 16:50 | 38.86558 | 35.81189 | 8129 ft | 209 kts | 212° |
| 2026-04-27 16:52 | 38.86081 | 35.80832 | 8081 ft | 208 kts | 212° |
| 2026-04-27 16:52 | 38.84833 | 35.79897 | 7988 ft | 207 kts | 212° |
| 2026-04-27 16:52 | 38.83581 | 35.78960 | 7782 ft | 212 kts | 212° |
| 2026-04-27 16:52 | 38.82524 | 35.77703 | 7635 ft | 206 kts | 241° |
| 2026-04-27 16:53 | 38.82009 | 35.75965 | 7341 ft | 212 kts | 256° |
| 2026-04-27 16:53 | 38.81681 | 35.74146 | 7061 ft | 207 kts | 258° |
| 2026-04-27 16:53 | 38.81363 | 35.72391 | 6791 ft | 197 kts | 257° |
| 2026-04-27 16:53 | 38.81052 | 35.70737 | 6541 ft | 185 kts | 257° |
| 2026-04-27 16:54 | 38.80759 | 35.69191 | 6315 ft | 170 kts | 257° |
| 2026-04-27 16:54 | 38.80491 | 35.67780 | 6088 ft | 156 kts | 257° |
| 2026-04-27 16:54 | 38.80239 | 35.66454 | 5883 ft | 153 kts | 257° |
| 2026-04-27 16:54 | 38.79987 | 35.65124 | 5681 ft | 155 kts | 257° |
| 2026-04-27 16:55 | 38.79732 | 35.63781 | 5473 ft | 155 kts | 257° |
| 2026-04-27 16:55 | 38.79479 | 35.62445 | 5253 ft | 156 kts | 257° |
| 2026-04-27 16:55 | 38.79222 | 35.61089 | 5042 ft | 157 kts | 257° |
| 2026-04-27 16:55 | 38.78966 | 35.59734 | 4837 ft | 157 kts | 258° |
| 2026-04-27 16:56 | 38.78709 | 35.58374 | 4633 ft | 157 kts | 258° |
| 2026-04-27 16:56 | 38.78451 | 35.57012 | 4426 ft | 157 kts | 258° |
| 2026-04-27 16:56 | 38.78195 | 35.55652 | 4229 ft | 157 kts | 259° |
| 2026-04-27 16:56 | 38.77956 | 35.54287 | 4036 ft | 157 kts | 261° |
| 2026-04-27 16:57 | 38.77712 | 35.52916 | 3821 ft | 157 kts | 258° |
| 2026-04-27 16:57 | 38.77443 | 35.51570 | 3588 ft | 156 kts | 256° |
| 2026-04-27 16:57 | 38.77179 | 35.50245 | 3464 ft | 145 kts | 258° |
| 2026-04-27 16:57 | 38.76989 | 35.49242 | 3464 ft | 86 kts | 256° |
| 2026-04-27 16:58 | 38.76890 | 35.48734 | 3465 ft | 32 kts | 255° |
| 2026-04-27 16:58 | 38.76827 | 35.48621 | 3467 ft | 12 kts | 187° |
| 2026-04-27 16:58 | 38.76759 | 35.48643 | 3467 ft | 8 kts | 165° |
| 2026-04-27 16:58 | 38.76721 | 35.48630 | 3467 ft | 5 kts | 231° |
| 2026-04-27 16:59 | 38.76712 | 35.48584 | 3467 ft | 6 kts | 263° |
| 2026-04-27 16:59 | 38.76705 | 35.48517 | 3467 ft | 9 kts | 259° |
| 2026-04-27 16:59 | 38.76692 | 35.48432 | 3467 ft | 11 kts | 260° |
| 2026-04-27 16:59 | 38.76679 | 35.48341 | 3467 ft | 9 kts | 256° |
| 2026-04-27 17:00 | 38.76660 | 35.48307 | 3467 ft | 3 kts | 194° |
| 2026-04-27 17:00 | 38.76628 | 35.48311 | 3467 ft | 1 kts | 164° |
| 2026-04-27 17:00 | 38.76627 | 35.48311 | 3467 ft | 0 kts | 164° |